createdAt,value
2019-05-06T00:01:33.996Z,3.33
2019-05-06T00:04:04.662Z,3.33
2019-05-06T00:06:34.563Z,3.34
2019-05-06T00:09:04.283Z,3.36
2019-05-06T00:11:34.538Z,3.39
2019-05-06T00:14:03.923Z,3.40
2019-05-06T00:16:34.700Z,3.43
2019-05-06T00:19:04.783Z,3.44
2019-05-06T00:21:35.268Z,3.45
2019-05-06T00:24:03.910Z,3.44
2019-05-06T00:26:34.121Z,3.45
2019-05-06T00:29:04.570Z,3.46
2019-05-06T00:31:34.593Z,3.47
2019-05-06T00:34:04.341Z,3.48
2019-05-06T00:36:34.499Z,3.51
2019-05-06T00:39:04.648Z,3.48
2019-05-06T00:41:36.437Z,3.48
2019-05-06T00:44:05.470Z,3.51
2019-05-06T00:46:34.477Z,3.54
2019-05-06T00:49:03.811Z,3.57
2019-05-06T00:51:33.907Z,3.57
2019-05-06T00:54:04.289Z,3.60
2019-05-06T00:56:34.087Z,3.61
2019-05-06T00:59:03.677Z,3.63
2019-05-06T01:01:34.276Z,3.55
2019-05-06T01:04:04.568Z,3.60
2019-05-06T01:06:34.415Z,3.58
2019-05-06T01:09:04.545Z,3.58
2019-05-06T01:11:34.575Z,3.57
2019-05-06T01:14:07.336Z,3.56
2019-05-06T01:16:35.658Z,3.55
2019-05-06T01:19:04.748Z,3.54
2019-05-06T01:21:34.398Z,3.52
2019-05-06T01:24:04.020Z,3.47
2019-05-06T01:26:33.737Z,3.41
2019-05-06T01:29:03.928Z,3.28
2019-05-06T01:31:42.028Z,3.13
2019-05-06T01:34:04.341Z,3.20
2019-05-06T01:36:34.267Z,3.18
2019-05-06T01:39:07.364Z,3.14
2019-05-06T01:41:53.689Z,3.05
2019-05-06T01:44:22.006Z,3.12
2019-05-06T01:46:50.331Z,3.14
2019-05-06T01:49:18.630Z,3.18
2019-05-06T01:51:47.007Z,3.11
2019-05-06T01:54:15.378Z,3.15
2019-05-06T01:56:44.404Z,3.12
2019-05-06T01:59:13.969Z,2.97
2019-05-06T02:01:56.423Z,2.85
2019-05-06T02:04:13.826Z,2.85
2019-05-06T02:06:43.829Z,2.80
2019-05-06T02:09:16.223Z,2.83
2019-05-06T02:11:47.740Z,2.89
2019-05-06T02:14:14.757Z,2.90
2019-05-06T02:16:43.714Z,2.85
2019-05-06T02:19:12.041Z,2.83
2019-05-06T02:21:43.848Z,2.87
2019-05-06T02:24:19.608Z,2.89
2019-05-06T02:26:48.053Z,2.88
2019-05-06T02:29:24.645Z,2.89
2019-05-06T02:32:21.082Z,2.92
2019-05-06T02:34:45.785Z,2.99
2019-05-06T02:37:15.859Z,2.99
2019-05-06T02:39:44.221Z,3.00
2019-05-06T02:42:13.210Z,3.04
2019-05-06T02:44:44.120Z,3.05
2019-05-06T02:47:28.568Z,3.02
2019-05-06T02:50:04.525Z,3.03
2019-05-06T02:52:33.002Z,3.08
2019-05-06T02:55:01.564Z,3.05
2019-05-06T02:57:33.251Z,3.04
2019-05-06T02:59:59.885Z,3.07
2019-05-06T03:02:42.108Z,3.02
2019-05-06T03:04:58.254Z,3.09
2019-05-06T03:07:26.582Z,3.04
2019-05-06T03:09:54.996Z,3.02
2019-05-06T03:12:25.003Z,3.01
2019-05-06T03:14:53.591Z,3.05
2019-05-06T03:17:23.495Z,3.02
2019-05-06T03:19:53.720Z,3.06
2019-05-06T03:22:35.644Z,3.14
2019-05-06T03:25:13.475Z,3.17
2019-05-06T03:27:46.560Z,3.23
2019-05-06T03:30:16.335Z,3.18
2019-05-06T03:33:21.509Z,3.22
2019-05-06T03:35:27.219Z,3.18
2019-05-06T03:37:44.049Z,3.18
2019-05-06T03:40:13.850Z,3.18
2019-05-06T03:42:42.749Z,3.10
2019-05-06T03:45:13.347Z,2.96
2019-05-06T03:47:43.681Z,2.99
2019-05-06T03:50:13.263Z,3.01
2019-05-06T03:52:43.004Z,3.06
2019-05-06T03:55:13.816Z,3.15
2019-05-06T03:57:42.863Z,3.25
2019-05-06T04:00:16.043Z,3.34
2019-05-06T04:02:44.554Z,3.40
2019-05-06T04:05:13.490Z,3.45
2019-05-06T04:07:45.923Z,3.51
2019-05-06T04:10:13.859Z,3.56
2019-05-06T04:12:44.573Z,3.60
2019-05-06T04:15:14.371Z,3.64
2019-05-06T04:17:47.229Z,3.64
2019-05-06T04:20:23.397Z,3.64
2019-05-06T04:22:54.631Z,3.69
2019-05-06T04:25:43.391Z,3.75
2019-05-06T04:28:13.822Z,3.78
2019-05-06T04:30:43.101Z,3.77
2019-05-06T04:33:16.513Z,3.80
2019-05-06T04:35:43.059Z,3.77
2019-05-06T04:38:14.002Z,3.78
2019-05-06T04:40:43.890Z,3.78
2019-05-06T04:43:13.314Z,3.73
2019-05-06T04:45:43.281Z,3.55
2019-05-06T04:48:14.324Z,3.55
2019-05-06T04:50:44.342Z,3.50
2019-05-06T04:53:13.710Z,3.54
2019-05-06T04:55:43.587Z,3.59
2019-05-06T04:58:13.594Z,3.73
2019-05-06T05:00:44.547Z,3.75
2019-05-06T05:03:13.967Z,3.80
2019-05-06T05:05:44.881Z,3.97
2019-05-06T05:08:13.354Z,4.07
2019-05-06T05:10:52.808Z,4.12
2019-05-06T05:13:32.937Z,4.17
2019-05-06T05:16:12.848Z,4.19
2019-05-06T05:18:42.791Z,4.26
2019-05-06T05:21:11.933Z,4.32
2019-05-06T05:23:42.717Z,4.37
2019-05-06T05:26:12.082Z,4.37
2019-05-06T05:28:42.803Z,4.54
2019-05-06T05:31:12.277Z,4.61
2019-05-06T05:33:42.363Z,4.67
2019-05-06T05:36:12.367Z,4.70
2019-05-06T05:38:42.820Z,4.73
2019-05-06T05:41:12.159Z,4.81
2019-05-06T05:43:54.160Z,4.77
2019-05-06T05:46:22.452Z,4.81
2019-05-06T05:48:55.466Z,5.01
2019-05-06T05:51:23.739Z,5.21
2019-05-06T05:53:52.498Z,5.31
2019-05-06T05:56:24.088Z,5.43
2019-05-06T05:58:53.558Z,5.45
2019-05-06T06:01:23.332Z,5.50
2019-05-06T06:03:52.771Z,5.58
2019-05-06T06:06:22.174Z,5.60
2019-05-06T06:08:52.370Z,5.70
2019-05-06T06:11:28.719Z,5.79
2019-05-06T06:13:58.675Z,5.75
2019-05-06T06:16:34.638Z,5.98
2019-05-06T06:19:12.591Z,6.10
2019-05-06T06:21:45.303Z,6.27
2019-05-06T06:24:24.065Z,6.40
2019-05-06T06:26:52.427Z,6.52
2019-05-06T06:29:22.822Z,6.63
2019-05-06T06:31:52.831Z,6.73
2019-05-06T06:34:32.966Z,6.85
2019-05-06T06:37:19.190Z,6.99
2019-05-06T06:39:49.405Z,7.04
2019-05-06T06:42:22.214Z,7.14
2019-05-06T06:44:52.063Z,7.23
2019-05-06T06:47:22.469Z,7.36
2019-05-06T06:49:53.310Z,7.36
2019-05-06T06:52:23.037Z,7.55
2019-05-06T06:54:52.638Z,7.74
2019-05-06T06:57:22.796Z,7.88
2019-05-06T06:59:53.257Z,7.86
2019-05-06T07:02:23.174Z,7.88
2019-05-06T07:05:05.896Z,7.87
2019-05-06T07:07:43.402Z,7.95
2019-05-06T07:10:09.420Z,8.03
2019-05-06T07:12:37.706Z,8.26
2019-05-06T07:15:07.368Z,8.35
2019-05-06T07:17:35.691Z,8.37
2019-05-06T07:20:15.477Z,8.01
2019-05-06T07:22:43.838Z,8.12
2019-05-06T07:25:12.824Z,8.41
2019-05-06T07:27:42.017Z,8.54
2019-05-06T07:30:12.350Z,8.48
2019-05-06T07:32:42.430Z,8.62
2019-05-06T07:35:12.871Z,8.62
2019-05-06T07:37:42.311Z,8.28
2019-05-06T07:40:12.439Z,8.39
2019-05-06T07:42:43.187Z,8.38
2019-05-06T07:45:13.323Z,8.58
2019-05-06T07:47:43.351Z,8.28
2019-05-06T07:50:13.043Z,8.30
2019-05-06T07:52:43.219Z,8.38
2019-05-06T07:55:12.053Z,8.25
2019-05-06T07:57:42.392Z,8.17
2019-05-06T08:00:12.516Z,7.92
2019-05-06T08:02:42.541Z,7.82
2019-05-06T08:05:12.621Z,7.68
2019-05-06T08:07:42.268Z,7.76
2019-05-06T08:10:10.821Z,7.58
2019-05-06T08:12:39.224Z,7.51
2019-05-06T08:15:07.760Z,7.61
2019-05-06T08:17:37.697Z,7.63
2019-05-06T08:20:07.282Z,7.35
2019-05-06T08:22:46.074Z,7.04
2019-05-06T08:25:14.451Z,6.93
2019-05-06T08:27:42.857Z,6.98
2019-05-06T08:30:12.915Z,7.00
2019-05-06T08:32:42.473Z,7.10
2019-05-06T08:35:12.884Z,7.19
2019-05-06T08:37:42.682Z,7.20
2019-05-06T08:40:12.013Z,7.26
2019-05-06T08:42:42.606Z,7.43
2019-05-06T08:45:12.703Z,7.27
2019-05-06T08:47:42.598Z,7.11
2019-05-06T08:50:15.318Z,7.14
2019-05-06T08:53:00.360Z,7.25
2019-05-06T08:55:36.236Z,7.21
2019-05-06T08:58:04.685Z,7.15
2019-05-06T09:00:34.719Z,7.20
2019-05-06T09:03:04.293Z,7.24
2019-05-06T09:05:33.221Z,7.43
2019-05-06T09:08:03.658Z,7.47
2019-05-06T09:10:32.512Z,7.62
2019-05-06T09:13:01.984Z,7.85
2019-05-06T09:15:32.549Z,8.00
2019-05-06T09:18:02.810Z,8.14
2019-05-06T09:20:32.465Z,8.22
2019-05-06T09:23:04.240Z,8.31
2019-05-06T09:25:32.299Z,8.57
2019-05-06T09:28:08.048Z,8.78
2019-05-06T09:30:38.257Z,9.00
2019-05-06T09:33:06.627Z,9.04
2019-05-06T09:35:35.017Z,9.16
2019-05-06T09:38:03.291Z,9.49
2019-05-06T09:40:31.934Z,9.75
2019-05-06T09:43:04.460Z,10.05
2019-05-06T09:45:30.456Z,10.26
2019-05-06T09:48:06.196Z,10.47
2019-05-06T09:50:37.853Z,10.76
2019-05-06T09:53:07.855Z,11.11
2019-05-06T09:55:54.136Z,11.41
2019-05-06T09:58:22.916Z,11.64
2019-05-06T10:00:55.650Z,11.95
2019-05-06T10:03:23.996Z,12.31
2019-05-06T10:05:53.090Z,12.61
2019-05-06T10:08:22.748Z,12.81
2019-05-06T10:10:56.812Z,13.01
2019-05-06T10:13:21.302Z,13.24
2019-05-06T10:15:52.081Z,13.69
2019-05-06T10:18:22.505Z,14.17
2019-05-06T10:20:50.622Z,14.63
2019-05-06T10:23:18.902Z,14.71
2019-05-06T10:25:47.221Z,15.28
2019-05-06T10:28:23.123Z,16.11
2019-05-06T10:30:50.571Z,17.13
2019-05-06T10:33:26.676Z,17.93
2019-05-06T10:35:57.071Z,19.25
2019-05-06T10:38:32.138Z,20.99
2019-05-06T10:41:07.452Z,22.01
2019-05-06T10:43:45.708Z,23.39
2019-05-06T10:46:14.393Z,24.76
2019-05-06T10:48:42.693Z,26.20
2019-05-06T10:51:22.887Z,27.88
2019-05-06T10:53:51.311Z,29.21
2019-05-06T10:56:27.300Z,30.24
2019-05-06T10:58:57.398Z,30.47
2019-05-06T11:01:30.231Z,30.78
2019-05-06T11:03:57.807Z,30.53
2019-05-06T11:06:26.116Z,29.55
2019-05-06T11:08:54.503Z,27.80
2019-05-06T11:11:32.666Z,26.44
2019-05-06T11:13:52.912Z,24.51
2019-05-06T11:16:23.762Z,23.87
2019-05-06T11:18:53.486Z,23.27
2019-05-06T11:21:22.626Z,22.64
2019-05-06T11:23:52.696Z,21.98
2019-05-06T11:26:23.536Z,21.38
2019-05-06T11:28:55.659Z,21.01
2019-05-06T11:31:33.196Z,20.58
2019-05-06T11:34:15.045Z,20.43
2019-05-06T11:36:47.907Z,20.55
2019-05-06T11:39:16.354Z,20.83
2019-05-06T11:42:01.450Z,21.64
2019-05-06T11:44:14.683Z,21.96
2019-05-06T11:46:43.082Z,21.72
2019-05-06T11:49:12.478Z,22.67
2019-05-06T11:51:43.527Z,22.77
2019-05-06T11:54:17.516Z,22.60
2019-05-06T11:56:48.865Z,19.31
2019-05-06T11:59:12.934Z,19.19
2019-05-06T12:01:43.532Z,18.59
2019-05-06T12:04:13.877Z,18.14
2019-05-06T12:06:42.462Z,18.47
2019-05-06T12:09:16.047Z,18.40
2019-05-06T12:11:43.187Z,18.52
2019-05-06T12:14:12.422Z,18.77
2019-05-06T12:16:40.916Z,19.12
2019-05-06T12:19:09.240Z,19.49
2019-05-06T12:21:37.546Z,19.57
2019-05-06T12:24:05.944Z,19.29
2019-05-06T12:26:34.273Z,18.30
2019-05-06T12:29:02.635Z,17.93
2019-05-06T12:31:32.789Z,17.49
2019-05-06T12:34:02.623Z,16.60
2019-05-06T12:36:32.594Z,15.42
2019-05-06T12:39:19.668Z,14.28
2019-05-06T12:41:57.992Z,13.85
2019-05-06T12:44:26.361Z,13.69
2019-05-06T12:47:08.279Z,13.58
2019-05-06T12:49:36.671Z,12.91
2019-05-06T12:52:05.097Z,12.11
2019-05-06T12:54:33.774Z,12.29
2019-05-06T12:57:03.351Z,12.15
2019-05-06T12:59:31.871Z,12.19
2019-05-06T13:02:02.704Z,12.29
2019-05-06T13:04:46.261Z,12.35
2019-05-06T13:07:02.929Z,12.04
2019-05-06T13:09:32.970Z,12.14
2019-05-06T13:12:03.276Z,12.07
2019-05-06T13:14:33.032Z,12.18
2019-05-06T13:17:02.877Z,12.17
2019-05-06T13:19:32.203Z,12.17
2019-05-06T13:22:03.590Z,12.25
2019-05-06T13:24:32.640Z,12.10
2019-05-06T13:27:02.523Z,12.14
2019-05-06T13:29:35.423Z,12.12
2019-05-06T13:32:02.986Z,11.93
2019-05-06T13:34:33.375Z,12.27
2019-05-06T13:37:01.425Z,12.53
2019-05-06T13:39:29.770Z,12.73
2019-05-06T13:41:58.182Z,12.67
2019-05-06T13:44:26.449Z,12.85
2019-05-06T13:46:55.269Z,13.06
2019-05-06T13:49:27.989Z,13.34
2019-05-06T13:52:03.964Z,13.87
2019-05-06T13:54:30.827Z,14.03
2019-05-06T13:56:59.120Z,14.45
2019-05-06T13:59:30.080Z,14.85
2019-05-06T14:02:17.078Z,15.45
2019-05-06T14:04:45.468Z,15.66
2019-05-06T14:07:13.856Z,15.66
2019-05-06T14:09:43.680Z,16.10
2019-05-06T14:12:12.355Z,16.38
2019-05-06T14:14:43.183Z,16.72
2019-05-06T14:17:12.781Z,16.94
2019-05-06T14:19:42.867Z,16.74
2019-05-06T14:22:12.517Z,16.82
2019-05-06T14:24:43.187Z,16.70
2019-05-06T14:27:12.252Z,16.82
2019-05-06T14:29:42.328Z,16.79
2019-05-06T14:32:12.260Z,16.46
2019-05-06T14:34:43.118Z,16.34
2019-05-06T14:37:10.750Z,16.37
2019-05-06T14:39:53.333Z,16.39
2019-05-06T14:42:13.586Z,16.32
2019-05-06T14:44:43.106Z,16.35
2019-05-06T14:47:25.222Z,16.26
2019-05-06T14:49:56.525Z,16.11
2019-05-06T14:52:24.823Z,15.98
2019-05-06T14:54:54.844Z,15.64
2019-05-06T14:57:24.101Z,15.58
2019-05-06T14:59:55.569Z,15.52
2019-05-06T15:02:26.228Z,15.34
2019-05-06T15:04:54.360Z,15.06
2019-05-06T15:07:22.662Z,14.93
2019-05-06T15:10:02.399Z,14.45
2019-05-06T15:12:23.353Z,14.31
2019-05-06T15:14:52.564Z,14.09
2019-05-06T15:17:22.922Z,14.07
2019-05-06T15:19:52.527Z,14.10
2019-05-06T15:22:22.510Z,14.03
2019-05-06T15:24:53.686Z,13.97
2019-05-06T15:27:22.735Z,13.98
2019-05-06T15:29:54.207Z,13.95
2019-05-06T15:32:27.306Z,13.62
2019-05-06T15:35:13.803Z,13.40
2019-05-06T15:37:46.608Z,13.25
2019-05-06T15:40:15.569Z,12.44
2019-05-06T15:42:43.871Z,12.64
2019-05-06T15:45:12.709Z,12.56
2019-05-06T15:47:42.542Z,12.59
2019-05-06T15:50:12.767Z,12.46
2019-05-06T15:52:43.556Z,12.31
2019-05-06T15:55:12.190Z,12.41
2019-05-06T15:57:43.283Z,12.51
2019-05-06T16:00:13.023Z,12.59
2019-05-06T16:02:41.984Z,12.73
2019-05-06T16:05:13.752Z,12.83
2019-05-06T16:07:43.147Z,13.03
2019-05-06T16:10:13.166Z,13.08
2019-05-06T16:12:41.848Z,12.96
2019-05-06T16:15:12.941Z,13.03
2019-05-06T16:17:42.668Z,12.66
2019-05-06T16:20:12.984Z,12.43
2019-05-06T16:22:44.409Z,12.25
2019-05-06T16:25:13.997Z,12.15
2019-05-06T16:27:44.121Z,12.02
2019-05-06T16:30:14.578Z,11.84
2019-05-06T16:32:43.499Z,11.79
2019-05-06T16:35:14.310Z,11.77
2019-05-06T16:37:42.415Z,11.78
2019-05-06T16:40:12.375Z,11.96
2019-05-06T16:42:45.349Z,11.98
2019-05-06T16:45:12.716Z,12.11
2019-05-06T16:47:44.369Z,12.19
2019-05-06T16:50:15.914Z,12.15
2019-05-06T16:52:45.498Z,12.21
2019-05-06T16:55:18.232Z,12.14
2019-05-06T16:57:48.230Z,12.11
2019-05-06T17:00:18.499Z,12.10
2019-05-06T17:03:00.561Z,11.97
2019-05-06T17:05:33.770Z,12.03
2019-05-06T17:08:02.965Z,12.04
2019-05-06T17:10:34.338Z,12.03
2019-05-06T17:13:03.060Z,12.04
2019-05-06T17:15:32.520Z,11.98
2019-05-06T17:18:02.864Z,11.96
2019-05-06T17:20:32.613Z,11.94
2019-05-06T17:23:02.927Z,11.93
2019-05-06T17:25:32.889Z,11.89
2019-05-06T17:28:02.775Z,11.71
2019-05-06T17:30:51.013Z,11.57
2019-05-06T17:33:42.802Z,11.43
2019-05-06T17:36:13.051Z,11.24
2019-05-06T17:38:45.689Z,11.10
2019-05-06T17:41:14.076Z,10.82
2019-05-06T17:43:44.107Z,10.85
2019-05-06T17:46:14.087Z,10.94
2019-05-06T17:48:44.074Z,10.80
2019-05-06T17:51:14.547Z,10.66
2019-05-06T17:53:47.524Z,10.60
2019-05-06T17:56:15.816Z,10.38
2019-05-06T17:58:44.190Z,10.41
2019-05-06T18:01:14.077Z,10.18
2019-05-06T18:03:42.355Z,10.01
2019-05-06T18:06:13.837Z,10.14
2019-05-06T18:08:43.006Z,10.04
2019-05-06T18:11:13.040Z,10.05
2019-05-06T18:13:41.490Z,10.07
2019-05-06T18:16:09.875Z,10.06
2019-05-06T18:18:38.232Z,10.07
2019-05-06T18:21:06.547Z,9.96
2019-05-06T18:23:34.925Z,9.95
2019-05-06T18:26:03.324Z,9.87
2019-05-06T18:28:32.691Z,9.91
2019-05-06T18:31:03.137Z,9.89
2019-05-06T18:33:32.650Z,9.85
2019-05-06T18:36:02.570Z,9.85
2019-05-06T18:38:33.523Z,9.80
2019-05-06T18:41:02.016Z,9.74
2019-05-06T18:43:32.661Z,9.70
2019-05-06T18:46:02.653Z,9.67
2019-05-06T18:48:32.894Z,9.64
2019-05-06T18:51:02.818Z,9.50
2019-05-06T18:53:32.994Z,9.45
2019-05-06T18:56:02.859Z,9.27
2019-05-06T18:58:31.200Z,9.23
2019-05-06T19:00:59.632Z,9.23
2019-05-06T19:03:31.869Z,9.10
2019-05-06T19:05:59.636Z,9.05
2019-05-06T19:08:32.939Z,8.91
2019-05-06T19:11:02.445Z,8.80
2019-05-06T19:13:33.293Z,8.79
2019-05-06T19:16:02.103Z,8.75
2019-05-06T19:18:30.500Z,8.66
2019-05-06T19:20:58.878Z,8.60
2019-05-06T19:23:27.203Z,8.57
2019-05-06T19:25:55.586Z,8.59
2019-05-06T19:28:24.039Z,8.60
2019-05-06T19:30:54.160Z,8.61
2019-05-06T19:33:22.457Z,8.59
2019-05-06T19:35:52.291Z,8.57
2019-05-06T19:38:23.900Z,8.54
2019-05-06T19:40:52.113Z,8.55
2019-05-06T19:43:21.971Z,8.52
2019-05-06T19:45:50.481Z,8.51
2019-05-06T19:48:18.857Z,8.47
2019-05-06T19:50:47.238Z,8.44
2019-05-06T19:53:15.568Z,8.28
2019-05-06T19:55:46.828Z,8.17
2019-05-06T19:58:13.938Z,8.11
2019-05-06T20:00:42.313Z,8.04
2019-05-06T20:03:12.281Z,7.91
2019-05-06T20:05:42.383Z,7.78
2019-05-06T20:08:24.221Z,7.66
2019-05-06T20:11:02.951Z,7.49
2019-05-06T20:13:32.287Z,7.28
2019-05-06T20:16:02.253Z,7.19
2019-05-06T20:18:32.735Z,7.10
2019-05-06T20:21:00.731Z,7.03
2019-05-06T20:23:29.112Z,7.13
2019-05-06T20:25:57.504Z,7.24
2019-05-06T20:28:25.948Z,7.27
2019-05-06T20:30:54.381Z,7.22
2019-05-06T20:33:22.781Z,7.20
2019-05-06T20:35:52.589Z,7.16
2019-05-06T20:38:23.227Z,7.17
2019-05-06T20:40:51.147Z,7.16
2019-05-06T20:43:21.676Z,7.16
2019-05-06T20:45:52.191Z,7.08
2019-05-06T20:48:20.715Z,7.08
2019-05-06T20:50:49.043Z,7.06
2019-05-06T20:53:17.351Z,7.08
2019-05-06T20:55:45.841Z,7.11
2019-05-06T20:58:14.244Z,7.13
2019-05-06T21:00:43.120Z,7.15
2019-05-06T21:03:12.344Z,7.17
2019-05-06T21:05:43.216Z,7.19
2019-05-06T21:08:12.878Z,7.11
2019-05-06T21:10:42.507Z,7.12
2019-05-06T21:13:13.128Z,7.10
2019-05-06T21:15:43.196Z,7.07
2019-05-06T21:18:12.117Z,7.06
2019-05-06T21:20:40.736Z,7.07
2019-05-06T21:23:09.018Z,7.03
2019-05-06T21:25:37.439Z,7.02
2019-05-06T21:28:05.733Z,7.02
2019-05-06T21:30:34.057Z,7.03
2019-05-06T21:33:02.422Z,7.02
2019-05-06T21:35:32.972Z,7.02
2019-05-06T21:38:02.517Z,6.86
2019-05-06T21:40:32.279Z,6.54
2019-05-06T21:43:02.076Z,6.44
2019-05-06T21:45:32.887Z,6.49
2019-05-06T21:48:02.748Z,6.47
2019-05-06T21:50:32.874Z,6.30
2019-05-06T21:53:02.689Z,6.30
2019-05-06T21:55:32.335Z,6.18
2019-05-06T21:58:02.128Z,6.13
2019-05-06T22:00:38.308Z,6.11
2019-05-06T22:03:06.677Z,6.14
2019-05-06T22:05:34.990Z,6.12
2019-05-06T22:08:03.360Z,6.07
2019-05-06T22:10:32.517Z,6.03
2019-05-06T22:13:00.858Z,6.03
2019-05-06T22:15:29.153Z,5.98
2019-05-06T22:17:57.568Z,5.93
2019-05-06T22:20:25.882Z,5.94
2019-05-06T22:22:54.217Z,5.97
2019-05-06T22:25:22.511Z,5.93
2019-05-06T22:27:51.959Z,5.96
2019-05-06T22:30:23.714Z,5.93
2019-05-06T22:32:52.667Z,5.92
2019-05-06T22:35:23.053Z,5.94
2019-05-06T22:37:52.932Z,5.94
2019-05-06T22:40:23.549Z,5.92
2019-05-06T22:42:52.751Z,5.88
2019-05-06T22:45:22.234Z,5.84
2019-05-06T22:47:50.833Z,5.86
2019-05-06T22:50:22.456Z,5.79
2019-05-06T22:52:49.300Z,5.82
2019-05-06T22:55:17.621Z,5.84
2019-05-06T22:57:45.914Z,5.85
2019-05-06T23:00:17.490Z,5.83
2019-05-06T23:02:53.139Z,5.73
2019-05-06T23:05:23.120Z,5.74
2019-05-06T23:07:53.239Z,5.74
2019-05-06T23:10:24.530Z,5.71
2019-05-06T23:12:52.375Z,5.52
2019-05-06T23:15:20.728Z,5.72
2019-05-06T23:17:49.034Z,5.81
2019-05-06T23:20:17.330Z,5.90
2019-05-06T23:22:45.632Z,5.75
2019-05-06T23:25:14.054Z,5.73
2019-05-06T23:27:44.223Z,5.84
2019-05-06T23:30:12.842Z,5.88
2019-05-06T23:32:42.224Z,5.84
2019-05-06T23:35:12.880Z,5.78
2019-05-06T23:38:17.501Z,5.80
2019-05-06T23:41:22.554Z,5.73
2019-05-06T23:44:27.238Z,5.70
2019-05-06T23:47:32.168Z,5.57
2019-05-06T23:50:36.902Z,5.41
2019-05-06T23:53:41.385Z,5.44
2019-05-06T23:56:43.970Z,5.38
2019-05-06T23:59:17.266Z,5.38
